createdAt,value
2018-08-12T00:00:37.637Z,18.30
2018-08-12T00:03:06.101Z,18.30
2018-08-12T00:05:34.621Z,18.30
2018-08-12T00:08:03.185Z,18.30
2018-08-12T00:10:31.686Z,18.30
2018-08-12T00:13:00.125Z,18.20
2018-08-12T00:15:28.621Z,18.20
2018-08-12T00:17:57.079Z,18.20
2018-08-12T00:20:25.511Z,18.20
2018-08-12T00:22:54.124Z,18.20
2018-08-12T00:25:23.680Z,18.20
2018-08-12T00:27:52.260Z,18.20
2018-08-12T00:30:20.960Z,18.20
2018-08-12T00:32:49.389Z,18.10
2018-08-12T00:35:19.256Z,18.10
2018-08-12T00:37:47.706Z,18.00
2018-08-12T00:40:17.140Z,18.00
2018-08-12T00:42:46.067Z,18.00
2018-08-12T00:45:16.512Z,18.00
2018-08-12T00:47:45.348Z,17.90
2018-08-12T00:50:14.562Z,18.00
2018-08-12T00:52:43.017Z,17.90
2018-08-12T00:55:13.473Z,17.90
2018-08-12T00:57:42.712Z,17.90
2018-08-12T01:00:13.604Z,17.90
2018-08-12T01:02:42.150Z,17.90
2018-08-12T01:05:12.752Z,17.90
2018-08-12T01:07:41.649Z,17.90
2018-08-12T01:10:10.900Z,17.90
2018-08-12T01:12:39.414Z,17.80
2018-08-12T01:15:11.252Z,17.90
2018-08-12T01:17:39.761Z,17.80
2018-08-12T01:20:09.394Z,17.80
2018-08-12T01:22:38.408Z,17.80
2018-08-12T01:25:07.540Z,17.80
2018-08-12T01:27:36.008Z,17.80
2018-08-12T01:30:07.415Z,17.70
2018-08-12T01:32:35.863Z,17.80
2018-08-12T01:35:05.009Z,17.70
2018-08-12T01:37:33.466Z,17.70
2018-08-12T01:40:01.944Z,17.70
2018-08-12T01:42:30.408Z,17.60
2018-08-12T01:44:58.807Z,17.60
2018-08-12T01:47:27.288Z,17.60
2018-08-12T01:49:55.930Z,17.50
2018-08-12T01:52:24.320Z,17.60
2018-08-12T01:54:52.691Z,17.60
2018-08-12T01:57:21.112Z,17.60
2018-08-12T01:59:49.534Z,17.60
2018-08-12T02:02:18.054Z,17.50
2018-08-12T02:04:46.544Z,17.60
2018-08-12T02:07:15.136Z,17.60
2018-08-12T02:09:43.607Z,17.60
2018-08-12T02:12:11.975Z,17.60
2018-08-12T02:14:40.481Z,17.50
2018-08-12T02:17:09.486Z,17.50
2018-08-12T02:19:37.919Z,17.50
2018-08-12T02:22:06.409Z,17.50
2018-08-12T02:24:34.912Z,17.50
2018-08-12T02:27:03.321Z,17.50
2018-08-12T02:29:31.756Z,17.50
2018-08-12T02:32:00.296Z,17.50
2018-08-12T02:34:29.117Z,17.50
2018-08-12T02:36:57.608Z,17.50
2018-08-12T02:39:26.102Z,17.50
2018-08-12T02:41:54.566Z,17.50
2018-08-12T02:44:23.060Z,17.40
2018-08-12T02:46:51.484Z,17.40
2018-08-12T02:49:19.864Z,17.40
2018-08-12T02:51:48.433Z,17.40
2018-08-12T02:54:16.965Z,17.40
2018-08-12T02:56:45.554Z,17.40
2018-08-12T02:59:14.057Z,17.50
2018-08-12T03:01:42.485Z,17.40
2018-08-12T03:04:10.916Z,17.40
2018-08-12T03:06:39.446Z,17.50
2018-08-12T03:09:10.157Z,17.50
2018-08-12T03:11:38.636Z,17.40
2018-08-12T03:14:08.493Z,17.40
2018-08-12T03:16:36.969Z,17.40
2018-08-12T03:19:05.448Z,17.30
2018-08-12T03:21:33.922Z,17.30
2018-08-12T03:24:02.431Z,17.20
2018-08-12T03:26:30.777Z,17.30
2018-08-12T03:28:59.156Z,17.20
2018-08-12T03:31:27.612Z,17.20
2018-08-12T03:33:56.025Z,17.20
2018-08-12T03:36:24.604Z,17.20
2018-08-12T03:38:53.036Z,17.20
2018-08-12T03:41:21.541Z,17.20
2018-08-12T03:43:50.091Z,17.10
2018-08-12T03:46:18.568Z,17.20
2018-08-12T03:48:47.139Z,17.20
2018-08-12T03:51:15.509Z,17.20
2018-08-12T03:53:44.000Z,17.20
2018-08-12T03:56:12.384Z,17.20
2018-08-12T03:58:40.818Z,17.10
2018-08-12T04:01:09.236Z,17.20
2018-08-12T04:03:37.980Z,17.10
2018-08-12T04:06:06.821Z,17.10
2018-08-12T04:08:35.156Z,17.10
2018-08-12T04:11:03.708Z,17.10
2018-08-12T04:13:32.194Z,17.10
2018-08-12T04:16:00.637Z,17.10
2018-08-12T04:18:29.422Z,17.10
2018-08-12T04:20:57.888Z,17.10
2018-08-12T04:23:26.358Z,17.10
2018-08-12T04:25:54.835Z,17.10
2018-08-12T04:28:23.262Z,17.10
2018-08-12T04:30:51.842Z,17.00
2018-08-12T04:33:20.289Z,17.00
2018-08-12T04:35:48.792Z,17.00
2018-08-12T04:38:17.315Z,17.00
2018-08-12T04:40:45.854Z,17.00
2018-08-12T04:43:15.261Z,17.00
2018-08-12T04:45:43.754Z,17.00
2018-08-12T04:48:12.221Z,17.00
2018-08-12T04:50:40.637Z,17.00
2018-08-12T04:53:09.081Z,17.00
2018-08-12T04:55:37.431Z,17.00
2018-08-12T04:58:05.833Z,17.00
2018-08-12T05:00:34.285Z,17.10
2018-08-12T05:03:02.853Z,17.00
2018-08-12T05:05:31.394Z,17.10
2018-08-12T05:07:59.824Z,17.00
2018-08-12T05:10:28.290Z,17.00
2018-08-12T05:12:56.701Z,17.10
2018-08-12T05:15:25.116Z,17.00
2018-08-12T05:17:53.566Z,17.00
2018-08-12T05:20:21.944Z,17.00
2018-08-12T05:22:50.436Z,17.00
2018-08-12T05:25:18.857Z,17.00
2018-08-12T05:27:47.297Z,17.00
2018-08-12T05:30:15.670Z,17.00
2018-08-12T05:32:44.209Z,17.00
2018-08-12T05:35:13.605Z,17.00
2018-08-12T05:37:42.536Z,17.00
2018-08-12T05:40:12.320Z,17.00
2018-08-12T05:42:40.836Z,17.00
2018-08-12T05:45:10.156Z,17.00
2018-08-12T05:47:39.325Z,17.00
2018-08-12T05:50:09.154Z,17.00
2018-08-12T05:52:37.558Z,17.00
2018-08-12T05:55:06.659Z,17.10
2018-08-12T05:57:35.093Z,17.00
2018-08-12T06:00:03.724Z,17.00
2018-08-12T06:02:32.144Z,17.00
2018-08-12T06:05:00.542Z,17.00
2018-08-12T06:07:29.091Z,17.00
2018-08-12T06:09:57.504Z,17.00
2018-08-12T06:12:25.862Z,17.10
2018-08-12T06:14:54.290Z,17.10
2018-08-12T06:17:22.856Z,17.10
2018-08-12T06:19:51.215Z,17.20
2018-08-12T06:22:19.666Z,17.20
2018-08-12T06:24:48.147Z,17.20
2018-08-12T06:27:16.656Z,17.20
2018-08-12T06:29:45.216Z,17.20
2018-08-12T06:32:13.756Z,17.20
2018-08-12T06:34:42.204Z,17.30
2018-08-12T06:37:10.902Z,17.30
2018-08-12T06:39:39.480Z,17.30
2018-08-12T06:42:08.092Z,17.30
2018-08-12T06:44:36.533Z,17.30
2018-08-12T06:47:05.041Z,17.30
2018-08-12T06:49:33.409Z,17.30
2018-08-12T06:52:01.888Z,17.30
2018-08-12T06:54:30.325Z,17.20
2018-08-12T06:56:59.140Z,17.20
2018-08-12T06:59:30.846Z,17.30
2018-08-12T07:02:00.369Z,17.30
2018-08-12T07:04:28.863Z,17.30
2018-08-12T07:06:57.361Z,17.40
2018-08-12T07:09:25.859Z,17.50
2018-08-12T07:11:54.336Z,17.60
2018-08-12T07:14:22.827Z,17.60
2018-08-12T07:16:51.346Z,17.70
2018-08-12T07:19:27.994Z,17.70
2018-08-12T07:21:56.505Z,17.70
2018-08-12T07:24:25.040Z,17.80
2018-08-12T07:26:53.528Z,17.80
2018-08-12T07:29:21.970Z,17.90
2018-08-12T07:31:50.804Z,17.90
2018-08-12T07:34:19.360Z,17.90
2018-08-12T07:36:47.865Z,17.90
2018-08-12T07:39:16.336Z,18.00
2018-08-12T07:41:45.411Z,17.90
2018-08-12T07:44:13.857Z,18.00
2018-08-12T07:46:43.110Z,18.00
2018-08-12T07:49:11.605Z,18.00
2018-08-12T07:51:39.974Z,18.00
2018-08-12T07:54:08.445Z,18.10
2018-08-12T07:56:37.064Z,18.10
2018-08-12T07:59:05.535Z,18.20
2018-08-12T08:01:33.957Z,18.10
2018-08-12T08:04:02.473Z,18.20
2018-08-12T08:06:30.971Z,18.30
2018-08-12T08:08:59.478Z,18.30
2018-08-12T08:11:27.909Z,18.40
2018-08-12T08:13:56.288Z,18.40
2018-08-12T08:16:24.844Z,18.50
2018-08-12T08:18:53.460Z,18.50
2018-08-12T08:21:22.249Z,18.50
2018-08-12T08:23:51.284Z,18.50
2018-08-12T08:26:19.761Z,18.60
2018-08-12T08:28:48.218Z,18.60
2018-08-12T08:31:16.740Z,18.60
2018-08-12T08:33:45.069Z,18.70
2018-08-12T08:36:13.495Z,18.70
2018-08-12T08:38:42.184Z,18.70
2018-08-12T08:41:10.748Z,18.80
2018-08-12T08:43:39.142Z,18.80
2018-08-12T08:46:08.003Z,18.80
2018-08-12T08:48:36.593Z,18.80
2018-08-12T08:51:05.102Z,18.90
2018-08-12T08:53:33.492Z,18.90
2018-08-12T08:56:01.964Z,18.90
2018-08-12T08:58:30.506Z,18.90
2018-08-12T09:00:59.006Z,18.90
2018-08-12T09:03:27.527Z,19.00
2018-08-12T09:05:55.994Z,19.00
2018-08-12T09:08:24.598Z,19.10
2018-08-12T09:10:53.065Z,19.10
2018-08-12T09:13:21.576Z,19.10
2018-08-12T09:15:50.024Z,19.10
2018-08-12T09:18:18.529Z,19.10
2018-08-12T09:20:47.016Z,19.10
2018-08-12T09:23:15.489Z,19.10
2018-08-12T09:25:43.978Z,19.20
2018-08-12T09:28:12.496Z,19.20
2018-08-12T09:30:40.919Z,19.10
2018-08-12T09:33:09.341Z,19.10
2018-08-12T09:35:37.836Z,19.20
2018-08-12T09:38:06.224Z,19.20
2018-08-12T09:40:34.601Z,19.20
2018-08-12T09:43:03.307Z,19.20
2018-08-12T09:45:31.860Z,19.20
2018-08-12T09:48:00.260Z,19.20
2018-08-12T09:50:28.740Z,19.20
2018-08-12T09:52:57.173Z,19.20
2018-08-12T09:55:25.634Z,19.20
2018-08-12T09:57:54.121Z,19.30
2018-08-12T10:00:25.915Z,19.30
2018-08-12T10:02:55.339Z,19.30
2018-08-12T10:05:24.009Z,19.30
2018-08-12T10:07:52.477Z,19.30
2018-08-12T10:10:20.966Z,19.40
2018-08-12T10:12:49.511Z,19.50
2018-08-12T10:15:18.245Z,19.50
2018-08-12T10:17:48.794Z,19.60
2018-08-12T10:20:17.250Z,19.70
2018-08-12T10:22:45.773Z,19.80
2018-08-12T10:25:14.288Z,19.80
2018-08-12T10:27:42.896Z,19.90
2018-08-12T10:30:12.754Z,19.90
2018-08-12T10:32:41.317Z,19.90
2018-08-12T10:35:11.355Z,19.90
2018-08-12T10:37:39.924Z,19.90
2018-08-12T10:40:10.641Z,19.80
2018-08-12T10:42:39.162Z,19.80
2018-08-12T10:45:09.714Z,19.80
2018-08-12T10:47:38.683Z,19.80
2018-08-12T10:50:11.000Z,19.80
2018-08-12T10:52:40.174Z,19.80
2018-08-12T10:55:09.674Z,19.80
2018-08-12T10:57:38.556Z,19.80
2018-08-12T11:00:16.917Z,19.90
2018-08-12T11:02:46.821Z,19.90
2018-08-12T11:05:16.720Z,19.90
2018-08-12T11:07:46.313Z,19.90
2018-08-12T11:10:14.933Z,20.00
2018-08-12T11:12:43.462Z,20.00
2018-08-12T11:15:11.972Z,20.00
2018-08-12T11:17:41.201Z,20.00
2018-08-12T11:20:10.177Z,20.00
2018-08-12T11:22:39.233Z,20.00
2018-08-12T11:25:09.152Z,20.00
2018-08-12T11:27:37.779Z,20.10
2018-08-12T11:30:09.433Z,20.10
2018-08-12T11:32:38.814Z,20.10
2018-08-12T11:35:09.405Z,20.20
2018-08-12T11:37:38.056Z,20.20
2018-08-12T11:40:09.702Z,20.20
2018-08-12T11:42:38.150Z,20.20
2018-08-12T11:45:09.473Z,20.30
2018-08-12T11:47:38.218Z,20.30
2018-08-12T11:50:08.860Z,20.40
2018-08-12T11:52:37.621Z,20.40
2018-08-12T11:55:13.348Z,20.50
2018-08-12T11:57:44.532Z,20.60
2018-08-12T12:00:18.133Z,20.70
2018-08-12T12:02:47.962Z,20.70
2018-08-12T12:05:16.815Z,20.80
2018-08-12T12:07:45.382Z,20.80
2018-08-12T12:10:16.167Z,20.80
2018-08-12T12:12:46.260Z,20.80
2018-08-12T12:15:15.417Z,20.80
2018-08-12T12:17:44.521Z,20.90
2018-08-12T12:20:13.954Z,20.90
2018-08-12T12:22:43.003Z,21.00
2018-08-12T12:25:14.349Z,21.10
2018-08-12T12:27:42.748Z,21.10
2018-08-12T12:30:17.140Z,21.20
2018-08-12T12:32:46.208Z,21.20
2018-08-12T12:35:14.789Z,21.20
2018-08-12T12:37:43.570Z,21.30
2018-08-12T12:40:14.452Z,21.30
2018-08-12T12:42:43.202Z,21.40
2018-08-12T12:45:13.659Z,21.40
2018-08-12T12:47:42.569Z,21.40
2018-08-12T12:50:13.151Z,21.50
2018-08-12T12:52:45.148Z,21.50
2018-08-12T12:55:13.570Z,21.60
2018-08-12T12:57:41.987Z,21.60
2018-08-12T13:00:13.057Z,21.60
2018-08-12T13:02:41.906Z,21.60
2018-08-12T13:05:12.469Z,21.60
2018-08-12T13:07:41.090Z,21.60
2018-08-12T13:10:11.315Z,21.60
2018-08-12T13:12:40.526Z,21.60
2018-08-12T13:15:10.690Z,21.60
2018-08-12T13:17:39.605Z,21.70
2018-08-12T13:20:13.008Z,21.70
2018-08-12T13:22:43.461Z,21.70
2018-08-12T13:25:14.698Z,21.70
2018-08-12T13:27:44.418Z,21.70
2018-08-12T13:30:13.647Z,21.70
2018-08-12T13:32:44.053Z,21.80
2018-08-12T13:35:13.074Z,21.80
2018-08-12T13:37:41.725Z,21.90
2018-08-12T13:40:11.881Z,21.90
2018-08-12T13:42:41.677Z,22.00
2018-08-12T13:45:13.298Z,22.00
2018-08-12T13:47:43.276Z,22.10
2018-08-12T13:50:15.475Z,22.10
2018-08-12T13:52:44.088Z,22.10
2018-08-12T13:55:12.661Z,22.10
2018-08-12T13:57:41.145Z,22.20
2018-08-12T14:00:11.573Z,22.20
2018-08-12T14:02:40.490Z,22.30
2018-08-12T14:05:09.222Z,22.40
2018-08-12T14:07:38.026Z,22.40
2018-08-12T14:10:07.271Z,22.40
2018-08-12T14:12:35.884Z,22.50
2018-08-12T14:15:05.240Z,22.60
2018-08-12T14:17:33.720Z,22.80
2018-08-12T14:20:02.278Z,23.00
2018-08-12T14:22:30.860Z,23.10
2018-08-12T14:24:59.306Z,23.20
2018-08-12T14:27:27.730Z,23.30
2018-08-12T14:29:56.164Z,23.40
2018-08-12T14:32:24.621Z,23.50
2018-08-12T14:34:53.070Z,23.50
2018-08-12T14:37:21.676Z,23.70
2018-08-12T14:39:50.461Z,23.80
2018-08-12T14:42:18.926Z,23.90
2018-08-12T14:44:47.617Z,23.90
2018-08-12T14:47:16.037Z,23.90
2018-08-12T14:49:44.468Z,23.90
2018-08-12T14:52:12.935Z,23.90
2018-08-12T14:54:41.391Z,23.90
2018-08-12T14:57:09.774Z,23.90
2018-08-12T14:59:38.848Z,23.80
2018-08-12T15:02:07.382Z,23.80
2018-08-12T15:04:35.873Z,23.80
2018-08-12T15:07:05.622Z,23.90
2018-08-12T15:09:34.627Z,23.90
2018-08-12T15:12:03.062Z,23.80
2018-08-12T15:14:31.509Z,23.80
2018-08-12T15:17:01.170Z,23.80
2018-08-12T15:19:29.643Z,23.80
2018-08-12T15:22:00.276Z,23.80
2018-08-12T15:24:28.794Z,23.80
2018-08-12T15:26:57.323Z,23.90
2018-08-12T15:29:25.875Z,24.00
2018-08-12T15:31:54.652Z,24.10
2018-08-12T15:34:23.180Z,24.10
2018-08-12T15:36:51.723Z,24.10
2018-08-12T15:39:20.189Z,24.10
2018-08-12T15:41:48.881Z,24.10
2018-08-12T15:44:17.862Z,24.10
2018-08-12T15:46:49.008Z,24.20
2018-08-12T15:49:17.568Z,24.20
2018-08-12T15:51:47.188Z,24.20
2018-08-12T15:57:31.784Z,24.10
2018-08-12T16:00:00.400Z,24.10
2018-08-12T16:02:29.405Z,24.10
2018-08-12T16:05:00.061Z,24.10
2018-08-12T16:07:29.148Z,24.10
2018-08-12T16:10:05.050Z,24.00
2018-08-12T16:12:36.165Z,24.00
2018-08-12T16:15:06.990Z,24.00
2018-08-12T16:17:35.468Z,24.10
2018-08-12T16:20:04.665Z,24.10
2018-08-12T16:22:33.503Z,24.10
2018-08-12T16:25:02.062Z,24.10
2018-08-12T16:27:30.560Z,24.20
2018-08-12T16:29:59.452Z,24.20
2018-08-12T16:32:28.760Z,24.20
2018-08-12T16:34:57.894Z,24.30
2018-08-12T16:37:26.257Z,24.30
2018-08-12T16:39:54.733Z,24.30
2018-08-12T16:42:23.385Z,24.40
2018-08-12T16:44:53.932Z,24.40
2018-08-12T16:47:23.233Z,24.30
2018-08-12T16:49:52.889Z,24.30
2018-08-12T16:52:21.485Z,24.30
2018-08-12T16:54:50.079Z,24.30
2018-08-12T16:57:18.509Z,24.20
2018-08-12T16:59:46.958Z,24.30
2018-08-12T17:02:15.391Z,24.20
2018-08-12T17:04:44.018Z,24.20
2018-08-12T17:07:12.447Z,24.10
2018-08-12T17:09:41.004Z,24.10
2018-08-12T17:12:10.350Z,24.10
2018-08-12T17:14:38.843Z,24.10
2018-08-12T17:17:07.636Z,24.10
2018-08-12T17:19:36.070Z,24.10
2018-08-12T17:22:04.545Z,24.10
2018-08-12T17:24:32.972Z,24.10
2018-08-12T17:27:02.211Z,24.10
2018-08-12T17:29:30.945Z,24.10
2018-08-12T17:31:59.390Z,24.10
2018-08-12T17:34:27.807Z,24.00
2018-08-12T17:36:56.275Z,24.00
2018-08-12T17:39:24.727Z,24.00
2018-08-12T17:41:53.200Z,24.10
2018-08-12T17:44:21.880Z,24.10
2018-08-12T17:46:50.264Z,24.00
2018-08-12T17:49:20.138Z,24.00
2018-08-12T17:51:51.917Z,24.00
2018-08-12T17:54:23.584Z,24.00
2018-08-12T17:56:52.658Z,23.90
2018-08-12T17:59:21.146Z,23.90
2018-08-12T18:02:01.073Z,23.90
2018-08-12T18:04:42.202Z,23.90
2018-08-12T18:07:10.738Z,23.90
2018-08-12T18:09:41.000Z,23.90
2018-08-12T18:12:11.190Z,23.80
2018-08-12T18:14:39.804Z,23.80
2018-08-12T18:17:08.255Z,23.80
2018-08-12T18:19:41.968Z,23.70
2018-08-12T18:22:11.017Z,23.70
2018-08-12T18:24:40.350Z,23.70
2018-08-12T18:27:09.597Z,23.60
2018-08-12T18:29:38.154Z,23.60
2018-08-12T18:32:06.621Z,23.60
2018-08-12T18:34:43.082Z,23.60
2018-08-12T18:37:12.130Z,23.50
2018-08-12T18:39:40.574Z,23.50
2018-08-12T18:42:09.447Z,23.50
2018-08-12T18:44:38.449Z,23.50
2018-08-12T18:47:07.280Z,23.40
2018-08-12T18:49:35.881Z,23.40
2018-08-12T18:52:09.882Z,23.40
2018-08-12T18:54:38.473Z,23.40
2018-08-12T18:57:08.216Z,23.30
2018-08-12T18:59:36.850Z,23.30
2018-08-12T19:02:05.340Z,23.30
2018-08-12T19:04:34.020Z,23.20
2018-08-12T19:07:02.681Z,23.20
2018-08-12T19:09:31.362Z,23.20
2018-08-12T19:11:59.855Z,23.10
2018-08-12T19:14:28.298Z,23.10
2018-08-12T19:16:57.000Z,23.10
2018-08-12T19:19:25.487Z,23.10
2018-08-12T19:21:53.913Z,23.00
2018-08-12T19:24:22.432Z,23.00
2018-08-12T19:26:51.040Z,23.00
2018-08-12T19:29:19.566Z,22.90
2018-08-12T19:31:48.167Z,22.90
2018-08-12T19:34:16.546Z,22.90
2018-08-12T19:36:45.102Z,22.90
2018-08-12T19:39:13.584Z,22.90
2018-08-12T19:41:42.144Z,22.80
2018-08-12T19:44:13.665Z,22.80
2018-08-12T19:46:42.456Z,22.80
2018-08-12T19:49:14.068Z,22.80
2018-08-12T19:51:42.542Z,22.70
2018-08-12T19:54:11.330Z,22.70
2018-08-12T19:56:39.823Z,22.70
2018-08-12T19:59:08.395Z,22.70
2018-08-12T20:01:36.868Z,22.60
2018-08-12T20:04:05.508Z,22.60
2018-08-12T20:06:34.098Z,22.60
2018-08-12T20:09:02.575Z,22.50
2018-08-12T20:11:31.642Z,22.50
2018-08-12T20:14:00.431Z,22.50
2018-08-12T20:16:28.860Z,22.50
2018-08-12T20:18:57.401Z,22.40
2018-08-12T20:21:25.917Z,22.40
2018-08-12T20:23:55.143Z,22.40
2018-08-12T20:26:23.670Z,22.30
2018-08-12T20:28:52.240Z,22.30
2018-08-12T20:31:20.918Z,22.30
2018-08-12T20:33:49.389Z,22.20
2018-08-12T20:36:18.080Z,22.20
2018-08-12T20:38:50.310Z,22.20
2018-08-12T20:41:18.869Z,22.20
2018-08-12T20:43:47.554Z,22.10
2018-08-12T20:46:16.097Z,22.10
2018-08-12T20:48:44.624Z,22.10
2018-08-12T20:51:13.091Z,22.10
2018-08-12T20:53:41.772Z,22.10
2018-08-12T20:56:10.315Z,22.10
2018-08-12T20:58:38.762Z,22.10
2018-08-12T21:01:07.272Z,22.10
2018-08-12T21:03:35.749Z,22.10
2018-08-12T21:06:04.239Z,22.00
2018-08-12T21:08:32.794Z,22.00
2018-08-12T21:11:01.339Z,22.00
2018-08-12T21:13:29.785Z,22.00
2018-08-12T21:15:58.478Z,21.90
2018-08-12T21:18:26.942Z,21.90
2018-08-12T21:20:55.430Z,21.90
2018-08-12T21:23:23.986Z,21.90
2018-08-12T21:25:52.455Z,21.90
2018-08-12T21:28:20.866Z,21.90
2018-08-12T21:30:49.338Z,21.90
2018-08-12T21:33:17.793Z,21.90
2018-08-12T21:35:46.297Z,21.90
2018-08-12T21:38:15.006Z,21.90
2018-08-12T21:40:43.838Z,21.80
2018-08-12T21:43:12.429Z,21.80
2018-08-12T21:45:40.901Z,21.80
2018-08-12T21:48:09.941Z,21.80
2018-08-12T21:50:38.368Z,21.80
2018-08-12T21:53:06.884Z,21.80
2018-08-12T21:55:35.288Z,21.80
2018-08-12T21:58:03.802Z,21.80
2018-08-12T22:00:32.302Z,21.80
2018-08-12T22:03:02.102Z,21.70
2018-08-12T22:05:30.602Z,21.70
2018-08-12T22:08:03.265Z,21.70
2018-08-12T22:10:31.782Z,21.70
2018-08-12T22:13:00.360Z,21.70
2018-08-12T22:15:28.856Z,21.70
2018-08-12T22:17:57.344Z,21.60
2018-08-12T22:20:25.963Z,21.60
2018-08-12T22:22:54.473Z,21.60
2018-08-12T22:25:23.156Z,21.60
2018-08-12T22:27:52.078Z,21.60
2018-08-12T22:30:20.707Z,21.50
2018-08-12T22:32:49.158Z,21.50
2018-08-12T22:35:17.713Z,21.50
2018-08-12T22:37:46.216Z,21.50
2018-08-12T22:40:14.614Z,21.50
2018-08-12T22:42:43.160Z,21.50
2018-08-12T22:45:12.194Z,21.50
2018-08-12T22:47:41.390Z,21.50
2018-08-12T22:50:09.889Z,21.50
2018-08-12T22:52:38.505Z,21.40
2018-08-12T22:55:07.914Z,21.40
2018-08-12T22:57:36.681Z,21.40
2018-08-12T23:00:08.361Z,21.40
2018-08-12T23:02:36.841Z,21.40
2018-08-12T23:05:05.772Z,21.40
2018-08-12T23:07:34.365Z,21.30
2018-08-12T23:10:02.944Z,21.30
2018-08-12T23:12:31.440Z,21.30
2018-08-12T23:15:11.217Z,21.30
2018-08-12T23:17:39.737Z,21.20
2018-08-12T23:20:08.432Z,21.30
2018-08-12T23:22:37.259Z,21.20
2018-08-12T23:25:05.865Z,21.20
2018-08-12T23:27:34.347Z,21.20
2018-08-12T23:30:04.157Z,21.20
2018-08-12T23:32:32.679Z,21.20
2018-08-12T23:35:01.160Z,21.20
2018-08-12T23:37:29.668Z,21.20
2018-08-12T23:39:58.249Z,21.10
2018-08-12T23:42:26.765Z,21.10
2018-08-12T23:44:55.622Z,21.10
2018-08-12T23:47:24.108Z,21.10
2018-08-12T23:49:52.578Z,21.10
2018-08-12T23:52:21.072Z,21.10
2018-08-12T23:54:49.536Z,21.10
2018-08-12T23:57:18.087Z,21.00
2018-08-12T23:59:47.510Z,21.00
